Time;durP1;ratioP1;P1;durP2;ratioP2;P2;SDS_P1;SDS_P2;PMS_P1;PMS_P2;Temp;Humidity;BMP_temperature;BMP_pressure;BME280_temperature;BME280_humidity;BME280_pressure;Samples;Min_cycle;Max_cycle;Signal;HPM_P1;HPM_P2
2023/04/22 00:02:01;;;;;;;6.72;2.78;;;;;;;;;;4945879;28;99410;-79
2023/04/22 00:04:28;;;;;;;6.60;2.97;;;;;;;;;;4944542;28;99369;-79
2023/04/22 00:06:55;;;;;;;6.97;3.00;;;;;;;;;;4946398;28;98689;-79
2023/04/22 00:09:22;;;;;;;5.85;2.88;;;;;;;;;;4949033;28;98972;-78
2023/04/22 00:11:49;;;;;;;;;;;;;;;;;;4946643;28;98581;-79
2023/04/22 00:14:16;;;;;;;6.47;2.47;;;;;;;;;;4925928;28;100193;-79
2023/04/22 00:16:42;;;;;;;6.57;2.80;;;;;;;;;;4923542;28;100162;-80
2023/04/22 00:19:09;;;;;;;7.15;2.70;;;;;;;;;;4946053;28;99120;-79
2023/04/22 00:21:35;;;;;;;5.82;2.80;;;;;;;;;;4945175;28;98840;-80
2023/04/22 00:24:02;;;;;;;8.63;3.08;;;;;;;;;;4944446;28;100330;-80
2023/04/22 00:26:29;;;;;;;5.40;2.50;;;;;;;;;;4944410;28;105851;-79
2023/04/22 00:28:56;;;;;;;5.35;2.30;;;;;;;;;;4927816;28;98986;-80
2023/04/22 00:31:22;;;;;;;6.03;2.72;;;;;;;;;;4946917;28;101001;-80
2023/04/22 00:33:49;;;;;;;5.68;2.55;;;;;;;;;;4945708;28;98818;-80
2023/04/22 00:36:15;;;;;;;6.32;2.95;;;;;;;;;;4943750;28;99998;-79
2023/04/22 00:38:45;;;;;;;5.97;2.85;;;;;;;;;;4939496;28;99350;-79
2023/04/22 00:41:11;;;;;;;7.40;3.28;;;;;;;;;;4944782;28;99785;-78
2023/04/22 00:43:38;;;;;;;8.18;2.97;;;;;;;;;;4940187;28;100439;-80
2023/04/22 00:46:05;;;;;;;7.05;2.80;;;;;;;;;;4946545;28;98843;-81
2023/04/22 00:48:31;;;;;;;8.43;2.55;;;;;;;;;;4930355;28;98742;-80
2023/04/22 00:50:58;;;;;;;6.50;2.92;;;;;;;;;;4946023;28;101177;-79
2023/04/22 00:53:24;;;;;;;7.07;2.70;;;;;;;;;;4949903;28;98775;-79
2023/04/22 00:55:51;;;;;;;6.10;2.65;;;;;;;;;;4945562;28;98620;-79
2023/04/22 00:58:18;;;;;;;6.65;2.53;;;;;;;;;;4944836;28;98628;-78
2023/04/22 01:00:44;;;;;;;6.35;2.72;;;;;;;;;;4944882;28;99036;-80
2023/04/22 01:03:11;;;;;;;6.20;2.75;;;;;;;;;;4944007;28;99803;-79
2023/04/22 01:05:39;;;;;;;5.85;2.78;;;;;;;;;;4944311;28;98895;-79
2023/04/22 01:08:07;;;;;;;6.50;2.80;;;;;;;;;;4943175;28;101025;-79
2023/04/22 01:10:34;;;;;;;4.93;2.40;;;;;;;;;;4926100;28;106844;-79
2023/04/22 01:13:03;;;;;;;7.10;2.60;;;;;;;;;;4939745;28;98937;-79
2023/04/22 01:15:30;;;;;;;6.40;2.95;;;;;;;;;;4947657;28;99028;-79
2023/04/22 01:17:56;;;;;;;6.22;2.50;;;;;;;;;;4947211;28;98889;-79
2023/04/22 01:20:28;;;;;;;6.90;2.90;;;;;;;;;;4947670;28;100183;-78
2023/04/22 01:22:58;;;;;;;6.00;2.63;;;;;;;;;;4946335;28;101591;-78
2023/04/22 01:25:25;;;;;;;5.75;2.47;;;;;;;;;;4929959;28;98721;-79
2023/04/22 01:27:52;;;;;;;5.65;2.60;;;;;;;;;;4947136;28;99380;-79
2023/04/22 01:30:18;;;;;;;5.28;2.47;;;;;;;;;;4944456;28;99272;-79
2023/04/22 01:32:45;;;;;;;4.95;2.55;;;;;;;;;;4942648;28;99180;-79
2023/04/22 01:35:12;;;;;;;7.57;2.80;;;;;;;;;;4945120;28;100956;-79
2023/04/22 01:37:43;;;;;;;7.47;3.08;;;;;;;;;;4942260;28;98644;-78
2023/04/22 01:40:10;;;;;;;11.57;3.05;;;;;;;;;;4942800;28;100522;-78
2023/04/22 01:42:36;;;;;;;10.90;2.30;;;;;;;;;;4943641;28;100250;-79
2023/04/22 01:45:03;;;;;;;10.88;2.30;;;;;;;;;;4942049;28;98260;-80
2023/04/22 01:47:30;;;;;;;5.22;2.40;;;;;;;;;;4926570;28;99045;-79
2023/04/22 01:49:56;;;;;;;5.95;2.22;;;;;;;;;;4943032;28;99702;-80
2023/04/22 01:52:23;;;;;;;6.35;2.08;;;;;;;;;;4941477;28;99327;-80
2023/04/22 01:54:50;;;;;;;6.05;2.35;;;;;;;;;;4926058;28;99437;-80
2023/04/22 01:57:16;;;;;;;4.32;2.00;;;;;;;;;;4945091;28;98990;-79
2023/04/22 01:59:43;;;;;;;5.25;2.05;;;;;;;;;;4926063;28;101555;-79
2023/04/22 02:02:09;;;;;;;3.70;1.65;;;;;;;;;;4941590;28;99173;-79
2023/04/22 02:04:36;;;;;;;6.95;1.90;;;;;;;;;;4926924;28;98598;-80
2023/04/22 02:07:03;;;;;;;4.65;2.00;;;;;;;;;;4928608;28;101645;-79
2023/04/22 02:09:32;;;;;;;4.47;1.80;;;;;;;;;;4954901;28;98251;-79
2023/04/22 02:11:58;;;;;;;3.60;1.75;;;;;;;;;;4965716;28;99003;-80
2023/04/22 02:14:25;;;;;;;4.75;1.90;;;;;;;;;;4950795;28;99505;-80
2023/04/22 02:16:51;;;;;;;3.95;2.03;;;;;;;;;;4942602;28;100138;-80
2023/04/22 02:19:18;;;;;;;3.95;1.90;;;;;;;;;;4945833;28;98893;-80
2023/04/22 02:21:44;;;;;;;4.85;2.10;;;;;;;;;;4943063;28;99393;-79
2023/04/22 02:24:11;;;;;;;3.47;1.80;;;;;;;;;;4942744;28;99264;-78
2023/04/22 02:26:37;;;;;;;4.53;1.90;;;;;;;;;;4942808;28;99784;-79
2023/04/22 02:29:04;;;;;;;4.88;2.20;;;;;;;;;;4943116;28;99033;-79
2023/04/22 02:31:30;;;;;;;6.22;1.98;;;;;;;;;;4924937;28;99111;-78
2023/04/22 02:33:57;;;;;;;4.57;2.15;;;;;;;;;;4941554;28;99928;-80
2023/04/22 02:36:24;;;;;;;4.22;2.15;;;;;;;;;;4939941;28;100844;-79
2023/04/22 02:38:50;;;;;;;3.70;2.13;;;;;;;;;;4942886;28;98938;-80
2023/04/22 02:41:17;;;;;;;5.15;2.35;;;;;;;;;;4945560;28;100408;-79
2023/04/22 02:43:45;;;;;;;5.38;2.50;;;;;;;;;;4941316;28;98610;-79
2023/04/22 02:46:12;;;;;;;5.38;2.30;;;;;;;;;;4940841;28;101706;-79
2023/04/22 02:48:39;;;;;;;5.90;2.28;;;;;;;;;;4922020;28;101686;-79
2023/04/22 02:51:05;;;;;;;3.10;1.88;;;;;;;;;;4916787;28;98953;-79
2023/04/22 02:53:32;;;;;;;4.75;2.05;;;;;;;;;;4925329;28;101822;-80
2023/04/22 02:55:59;;;;;;;4.50;2.15;;;;;;;;;;4942146;28;99388;-80
2023/04/22 02:58:26;;;;;;;4.30;2.13;;;;;;;;;;4915991;28;98613;-80
2023/04/22 03:00:52;;;;;;;4.03;1.83;;;;;;;;;;4942915;28;99028;-79
2023/04/22 03:03:19;;;;;;;4.35;2.00;;;;;;;;;;4943586;28;101880;-80
2023/04/22 03:05:46;;;;;;;4.13;1.90;;;;;;;;;;4943543;28;100020;-80
2023/04/22 03:08:12;;;;;;;3.65;1.90;;;;;;;;;;4935372;28;100231;-79
2023/04/22 03:10:39;;;;;;;3.35;1.77;;;;;;;;;;4946275;28;99689;-79
2023/04/22 03:13:05;;;;;;;3.13;1.58;;;;;;;;;;4947183;28;100677;-80
2023/04/22 03:15:32;;;;;;;3.55;1.73;;;;;;;;;;4934645;28;101894;-80
2023/04/22 03:17:58;;;;;;;4.05;1.90;;;;;;;;;;4945526;28;98868;-79
2023/04/22 03:20:26;;;;;;;3.45;1.70;;;;;;;;;;4908522;28;101210;-79
2023/04/22 03:22:53;;;;;;;3.95;2.00;;;;;;;;;;4927821;28;100784;-80
2023/04/22 03:25:20;;;;;;;3.95;1.90;;;;;;;;;;4914871;28;99244;-80
2023/04/22 03:27:51;;;;;;;3.17;1.80;;;;;;;;;;4925712;28;101233;-79
2023/04/22 03:30:17;;;;;;;3.95;1.63;;;;;;;;;;4944445;28;99344;-79
2023/04/22 03:32:45;;;;;;;5.28;2.10;;;;;;;;;;4928247;28;102080;-80
2023/04/22 03:35:20;;;;;;;4.57;2.05;;;;;;;;;;4942904;28;101754;-80
2023/04/22 03:37:49;;;;;;;3.95;2.13;;;;;;;;;;4927073;28;99765;-80
2023/04/22 03:40:20;;;;;;;4.63;2.20;;;;;;;;;;4927472;28;101579;-78
2023/04/22 03:42:47;;;;;;;6.50;2.40;;;;;;;;;;4927809;28;102018;-79
2023/04/22 03:45:17;;;;;;;4.43;2.30;;;;;;;;;;4947155;28;99191;-79
2023/04/22 03:47:49;;;;;;;5.25;2.70;;;;;;;;;;4916973;28;101073;-78
2023/04/22 03:50:21;;;;;;;5.88;2.40;;;;;;;;;;4942753;28;99174;-79
2023/04/22 03:52:50;;;;;;;5.85;2.63;;;;;;;;;;4920936;28;101741;-79
2023/04/22 03:55:19;;;;;;;5.93;2.85;;;;;;;;;;4927124;28;102134;-79
2023/04/22 03:57:48;;;;;;;5.32;2.33;;;;;;;;;;4928339;28;99035;-79
2023/04/22 04:00:15;;;;;;;4.53;2.17;;;;;;;;;;4939515;28;101632;-79
2023/04/22 04:02:47;;;;;;;5.35;2.45;;;;;;;;;;4927717;28;100581;-79
2023/04/22 04:05:16;;;;;;;5.13;2.53;;;;;;;;;;4944943;28;99307;-79
2023/04/22 04:07:43;;;;;;;6.22;2.72;;;;;;;;;;4950337;28;101485;-79
2023/04/22 04:10:11;;;;;;;5.97;2.55;;;;;;;;;;4934841;28;98631;-78
2023/04/22 04:12:37;;;;;;;5.93;2.70;;;;;;;;;;4952187;28;100615;-79
2023/04/22 04:15:04;;;;;;;5.53;2.70;;;;;;;;;;4950551;28;101724;-79
2023/04/22 04:17:32;;;;;;;4.05;2.20;;;;;;;;;;4943816;28;99979;-80
2023/04/22 04:20:00;;;;;;;5.47;2.45;;;;;;;;;;4945311;28;101260;-80
2023/04/22 04:22:28;;;;;;;6.32;2.80;;;;;;;;;;4928535;28;100945;-80
2023/04/22 04:24:58;;;;;;;5.07;2.58;;;;;;;;;;4943133;28;98692;-79
2023/04/22 04:27:29;;;;;;;5.70;2.30;;;;;;;;;;4944966;28;100307;-78
2023/04/22 04:29:57;;;;;;;5.00;2.60;;;;;;;;;;4934558;28;101659;-80
2023/04/22 04:32:44;;;;;;;5.90;2.50;;;;;;;;;;4952858;28;103516;-78
2023/04/22 04:35:13;;;;;;;5.95;2.70;;;;;;;;;;4926981;28;101986;-78
2023/04/22 04:37:45;;;;;;;6.20;2.80;;;;;;;;;;4928524;28;98019;-79
2023/04/22 04:40:13;;;;;;;5.93;2.40;;;;;;;;;;4942138;28;99698;-78
2023/04/22 04:43:07;;;;;;;5.88;2.80;;;;;;;;;;4926069;28;101843;-76
2023/04/22 04:45:46;;;;;;;6.20;2.80;;;;;;;;;;4940025;28;99778;-77
2023/04/22 04:48:18;;;;;;;5.53;2.58;;;;;;;;;;4946779;28;101966;-78
2023/04/22 04:50:52;;;;;;;5.53;2.67;;;;;;;;;;4925908;28;102653;-78
2023/04/22 04:53:21;;;;;;;5.80;2.80;;;;;;;;;;4945905;28;99246;-78
2023/04/22 04:55:48;;;;;;;6.18;2.30;;;;;;;;;;4939706;28;101839;-79
2023/04/22 04:58:19;;;;;;;8.27;2.70;;;;;;;;;;4941960;28;98939;-79
2023/04/22 05:00:51;;;;;;;10.10;2.45;;;;;;;;;;4926730;28;100968;-79
2023/04/22 05:03:18;;;;;;;5.80;2.30;;;;;;;;;;4942555;28;100945;-79
2023/04/22 05:05:47;;;;;;;6.53;2.40;;;;;;;;;;4942471;28;100244;-80
2023/04/22 05:08:14;;;;;;;5.68;2.38;;;;;;;;;;4922985;28;101210;-80
2023/04/22 05:10:43;;;;;;;8.95;2.30;;;;;;;;;;4935779;28;102561;-80
2023/04/22 05:13:10;;;;;;;4.90;2.30;;;;;;;;;;4944647;28;99226;-80
2023/04/22 05:15:40;;;;;;;6.70;2.33;;;;;;;;;;4932182;28;101126;-80
2023/04/22 05:18:07;;;;;;;5.10;2.35;;;;;;;;;;4926195;28;98863;-80
2023/04/22 05:20:34;;;;;;;4.50;2.42;;;;;;;;;;4944115;28;103398;-78
2023/04/22 05:23:02;;;;;;;4.13;1.90;;;;;;;;;;4941592;28;99362;-78
2023/04/22 05:25:29;;;;;;;5.38;2.30;;;;;;;;;;4943739;28;106517;-78
2023/04/22 05:28:01;;;;;;;5.32;2.15;;;;;;;;;;4938752;28;101333;-78
2023/04/22 05:30:34;;;;;;;4.68;2.30;;;;;;;;;;4941104;28;107633;-78
2023/04/22 05:33:00;;;;;;;6.32;2.17;;;;;;;;;;4942492;28;99209;-78
2023/04/22 05:35:27;;;;;;;5.72;2.30;;;;;;;;;;4926081;28;100865;-78
2023/04/22 05:37:54;;;;;;;4.72;2.40;;;;;;;;;;4915471;28;101762;-78
2023/04/22 05:40:21;;;;;;;5.50;2.17;;;;;;;;;;4949007;28;100419;-78
2023/04/22 05:42:47;;;;;;;4.55;2.13;;;;;;;;;;4945782;28;99244;-78
2023/04/22 05:45:14;;;;;;;4.60;2.20;;;;;;;;;;4934182;28;99115;-78
2023/04/22 05:47:41;;;;;;;4.47;2.17;;;;;;;;;;4935146;28;101325;-78
2023/04/22 05:50:08;;;;;;;7.35;2.67;;;;;;;;;;4928007;28;101549;-82
2023/04/22 05:52:45;;;;;;;5.03;2.42;;;;;;;;;;4943086;28;98085;-79
2023/04/22 05:55:14;;;;;;;6.97;2.78;;;;;;;;;;4945110;28;101108;-80
2023/04/22 05:57:41;;;;;;;5.68;2.83;;;;;;;;;;4955247;28;100669;-79
2023/04/22 06:00:20;;;;;;;6.20;2.63;;;;;;;;;;4937857;28;102048;-79
2023/04/22 06:03:01;;;;;;;5.97;2.53;;;;;;;;;;4912901;28;100491;-80
2023/04/22 06:05:28;;;;;;;7.50;2.55;;;;;;;;;;4943885;28;99330;-80
2023/04/22 06:07:56;;;;;;;5.95;2.10;;;;;;;;;;4964008;28;98863;-80
2023/04/22 06:10:22;;;;;;;9.57;2.50;;;;;;;;;;4926453;28;102420;-80
2023/04/22 06:12:49;;;;;;;10.15;2.00;;;;;;;;;;4939493;28;98974;-81
2023/04/22 06:15:16;;;;;;;4.80;1.80;;;;;;;;;;4930514;28;99320;-80
2023/04/22 06:17:44;;;;;;;4.75;1.80;;;;;;;;;;4924246;28;101057;-80
2023/04/22 06:20:11;;;;;;;5.55;1.90;;;;;;;;;;4941702;28;99290;-79
2023/04/22 06:22:38;;;;;;;6.25;1.80;;;;;;;;;;4948156;28;102101;-82
2023/04/22 06:25:04;;;;;;;4.43;1.83;;;;;;;;;;4948834;28;99418;-82
2023/04/22 06:27:31;;;;;;;5.85;1.60;;;;;;;;;;4948038;28;101674;-81
2023/04/22 06:29:57;;;;;;;15.10;1.83;;;;;;;;;;4929336;28;101832;-81
2023/04/22 06:32:24;;;;;;;6.45;1.90;;;;;;;;;;4949613;28;98584;-80
2023/04/22 06:34:51;;;;;;;3.95;1.70;;;;;;;;;;4944957;28;100133;-85
2023/04/22 06:37:17;;;;;;;5.63;1.92;;;;;;;;;;4946117;28;99215;-84
2023/04/22 06:39:45;;;;;;;5.82;1.70;;;;;;;;;;4948222;28;98663;-82
2023/04/22 06:42:37;;;;;;;4.15;1.70;;;;;;;;;;4924051;28;102037;-83
2023/04/22 06:45:23;;;;;;;5.93;1.92;;;;;;;;;;4939523;28;98858;-84
2023/04/22 06:48:05;;;;;;;6.78;2.10;;;;;;;;;;4933621;28;100021;-85
2023/04/22 06:50:51;;;;;;;6.93;2.00;;;;;;;;;;4949114;28;104831;-85
2023/04/22 06:53:18;;;;;;;4.50;2.10;;;;;;;;;;4947679;28;98808;-84
2023/04/22 06:55:45;;;;;;;5.45;2.00;;;;;;;;;;4948087;28;101967;-85
2023/04/22 06:58:11;;;;;;;6.10;1.98;;;;;;;;;;4946449;28;101593;-85
2023/04/22 07:00:38;;;;;;;4.85;2.10;;;;;;;;;;4935244;28;99164;-83
2023/04/22 07:03:05;;;;;;;7.78;2.20;;;;;;;;;;4956324;28;100086;-95
2023/04/22 07:05:31;;;;;;;5.47;2.13;;;;;;;;;;4921950;28;100802;-89
2023/04/22 07:07:58;;;;;;;4.78;2.05;;;;;;;;;;4940594;28;101028;-88
2023/04/22 07:10:26;;;;;;;5.28;2.10;;;;;;;;;;4954410;28;101693;-86
2023/04/22 07:13:21;;;;;;;6.93;2.20;;;;;;;;;;4952985;28;98468;-85
2023/04/22 07:15:47;;;;;;;4.80;2.13;;;;;;;;;;4954655;28;99364;-87
2023/04/22 07:18:14;;;;;;;6.20;2.15;;;;;;;;;;4962217;28;99152;-84
2023/04/22 07:20:41;;;;;;;5.82;2.10;;;;;;;;;;4967606;28;98374;-87
2023/04/22 07:23:07;;;;;;;5.65;2.20;;;;;;;;;;4969435;28;99060;-86
2023/04/22 07:25:34;;;;;;;4.75;2.10;;;;;;;;;;4966879;28;99575;-82
2023/04/22 07:28:01;;;;;;;5.88;1.75;;;;;;;;;;4952152;28;98954;-82
2023/04/22 07:30:27;;;;;;;6.63;2.20;;;;;;;;;;4956264;28;98935;-80
2023/04/22 07:32:54;;;;;;;4.65;1.98;;;;;;;;;;4937649;28;105101;-80
2023/04/22 07:35:20;;;;;;;4.80;1.90;;;;;;;;;;4951051;28;100358;-82
2023/04/22 07:37:47;;;;;;;5.10;2.13;;;;;;;;;;4951257;28;98887;-80
2023/04/22 07:40:13;;;;;;;3.78;1.77;;;;;;;;;;4968926;28;99322;-81
2023/04/22 07:42:40;;;;;;;4.60;2.05;;;;;;;;;;4953884;28;98560;-82
2023/04/22 07:45:07;;;;;;;5.35;2.00;;;;;;;;;;4968276;28;98320;-83
2023/04/22 07:47:33;;;;;;;4.65;1.98;;;;;;;;;;4970673;28;98548;-83
2023/04/22 07:50:00;;;;;;;5.95;2.15;;;;;;;;;;4963969;28;99698;-82
2023/04/22 07:52:27;;;;;;;4.40;2.00;;;;;;;;;;4948889;28;98518;-84
2023/04/22 07:54:53;;;;;;;4.32;1.80;;;;;;;;;;4956662;28;98493;-85
2023/04/22 07:57:21;;;;;;;4.55;1.80;;;;;;;;;;4968919;28;100549;-84
2023/04/22 07:59:48;;;;;;;4.40;1.85;;;;;;;;;;4946655;28;98750;-84
2023/04/22 08:02:14;;;;;;;4.28;1.90;;;;;;;;;;4959628;28;98772;-84
2023/04/22 08:04:41;;;;;;;4.20;1.70;;;;;;;;;;4943830;28;99873;-84
2023/04/22 08:07:08;;;;;;;4.20;1.85;;;;;;;;;;4944589;28;99279;-84
2023/04/22 08:09:55;;;;;;;4.00;1.80;;;;;;;;;;4949519;28;98838;-86
2023/04/22 08:12:22;;;;;;;5.70;1.80;;;;;;;;;;4946856;28;99037;-84
2023/04/22 08:14:48;;;;;;;3.83;1.77;;;;;;;;;;4947347;28;98939;-82
2023/04/22 08:17:15;;;;;;;4.57;2.00;;;;;;;;;;4945358;28;99354;-81
2023/04/22 08:19:41;;;;;;;3.72;1.88;;;;;;;;;;4942951;28;99453;-82
2023/04/22 08:22:08;;;;;;;5.78;2.10;;;;;;;;;;4942740;28;101917;-83
2023/04/22 08:24:35;;;;;;;5.40;1.80;;;;;;;;;;4943634;28;106219;-82
2023/04/22 08:27:01;;;;;;;5.15;1.77;;;;;;;;;;4927258;28;99218;-82
2023/04/22 08:29:28;;;;;;;4.20;1.90;;;;;;;;;;4942696;28;99965;-82
2023/04/22 08:31:55;;;;;;;4.57;1.90;;;;;;;;;;4947776;28;99155;-82
2023/04/22 08:34:23;;;;;;;3.88;1.67;;;;;;;;;;4943910;28;98764;-80
2023/04/22 08:36:50;;;;;;;3.65;1.60;;;;;;;;;;4941870;28;99308;-81
2023/04/22 08:39:17;;;;;;;4.60;1.88;;;;;;;;;;4926849;28;98655;-81
2023/04/22 08:41:44;;;;;;;3.90;1.75;;;;;;;;;;4944639;28;98968;-81
2023/04/22 08:44:10;;;;;;;3.47;1.70;;;;;;;;;;4939377;28;101424;-81
2023/04/22 08:46:37;;;;;;;4.75;1.63;;;;;;;;;;4944793;28;98225;-81
2023/04/22 08:49:04;;;;;;;3.10;1.50;;;;;;;;;;4927986;28;99248;-83
2023/04/22 08:51:34;;;;;;;4.25;1.70;;;;;;;;;;4943093;28;99160;-82
2023/04/22 08:54:01;;;;;;;3.95;1.63;;;;;;;;;;4947403;28;100154;-83
2023/04/22 08:56:27;;;;;;;4.60;1.92;;;;;;;;;;4942384;28;100427;-82
2023/04/22 08:58:54;;;;;;;3.45;1.50;;;;;;;;;;4942009;28;99000;-82
2023/04/22 09:01:21;;;;;;;2.53;1.50;;;;;;;;;;4941912;28;99404;-82
2023/04/22 09:03:48;;;;;;;;;;;;;;;;;;4941895;28;100112;-83
2023/04/22 09:06:15;;;;;;;3.28;1.60;;;;;;;;;;4944218;28;99290;-82
2023/04/22 09:08:42;;;;;;;4.85;1.60;;;;;;;;;;4944919;28;99065;-83
2023/04/22 09:11:10;;;;;;;4.80;1.60;;;;;;;;;;4942489;28;98560;-81
2023/04/22 09:13:36;;;;;;;3.17;1.40;;;;;;;;;;4942025;28;98591;-82
2023/04/22 09:16:03;;;;;;;3.65;1.67;;;;;;;;;;4948790;28;99421;-83
2023/04/22 09:18:29;;;;;;;4.18;1.67;;;;;;;;;;4941203;28;99374;-83
2023/04/22 09:20:56;;;;;;;5.07;1.60;;;;;;;;;;4942224;28;99450;-84
2023/04/22 09:23:22;;;;;;;3.05;1.45;;;;;;;;;;4943708;28;99199;-83
2023/04/22 09:25:49;;;;;;;3.42;1.48;;;;;;;;;;4944944;28;98545;-83
2023/04/22 09:28:17;;;;;;;3.78;1.60;;;;;;;;;;4942960;28;99169;-82
2023/04/22 09:30:44;;;;;;;4.13;1.50;;;;;;;;;;4942473;28;101971;-82
2023/04/22 09:33:12;;;;;;;3.78;1.40;;;;;;;;;;4944881;28;98991;-80
2023/04/22 09:35:40;;;;;;;9.25;1.60;;;;;;;;;;4947212;28;100987;-90
2023/04/22 09:38:07;;;;;;;18.40;1.50;;;;;;;;;;4947991;28;98905;-79
2023/04/22 09:40:34;;;;;;;4.95;1.30;;;;;;;;;;4943954;28;105946;-79
2023/04/22 09:43:05;;;;;;;4.85;1.52;;;;;;;;;;4941783;28;102755;-79
2023/04/22 09:45:32;;;;;;;3.20;1.30;;;;;;;;;;4944276;28;99144;-79
2023/04/22 09:48:00;;;;;;;2.75;1.38;;;;;;;;;;4950985;28;99201;-78
2023/04/22 09:50:27;;;;;;;3.40;1.40;;;;;;;;;;4943106;28;100653;-80
2023/04/22 09:53:01;;;;;;;2.90;1.45;;;;;;;;;;4937127;28;99092;-79
2023/04/22 09:55:29;;;;;;;3.95;1.65;;;;;;;;;;4954567;28;99089;-79
2023/04/22 09:57:56;;;;;;;2.70;1.27;;;;;;;;;;4958506;28;99426;-78
2023/04/22 10:00:23;;;;;;;;;;;;;;;;;;4954094;28;98284;-79
2023/04/22 10:02:49;;;;;;;3.50;1.40;;;;;;;;;;4946722;28;99091;-79
2023/04/22 10:05:17;;;;;;;2.70;1.30;;;;;;;;;;4945556;28;98996;-79
2023/04/22 10:07:44;;;;;;;2.97;1.40;;;;;;;;;;4925840;28;100902;-79
2023/04/22 10:10:11;;;;;;;2.00;1.10;;;;;;;;;;4943429;28;99352;-79
2023/04/22 10:12:37;;;;;;;2.70;1.23;;;;;;;;;;4944805;28;98915;-79
2023/04/22 10:15:05;;;;;;;3.72;1.40;;;;;;;;;;4943270;28;98750;-79
2023/04/22 10:17:32;;;;;;;2.75;1.40;;;;;;;;;;4943382;28;99176;-79
2023/04/22 10:20:03;;;;;;;3.65;1.50;;;;;;;;;;4947215;28;99903;-79
2023/04/22 10:22:30;;;;;;;3.30;1.63;;;;;;;;;;4944363;28;99015;-79
2023/04/22 10:24:57;;;;;;;2.25;1.30;;;;;;;;;;4945082;28;98319;-78
2023/04/22 10:27:24;;;;;;;2.75;1.40;;;;;;;;;;4947298;28;98673;-80
2023/04/22 10:29:51;;;;;;;2.92;1.20;;;;;;;;;;4945536;28;100333;-79
2023/04/22 10:32:17;;;;;;;2.83;1.40;;;;;;;;;;4943681;28;99770;-79
2023/04/22 10:34:48;;;;;;;2.53;1.40;;;;;;;;;;4943504;28;99700;-80
2023/04/22 10:37:17;;;;;;;2.55;1.30;;;;;;;;;;4941360;28;99441;-79
2023/04/22 10:40:04;;;;;;;2.88;1.40;;;;;;;;;;4943829;28;98649;-80
2023/04/22 10:42:30;;;;;;;3.47;1.60;;;;;;;;;;4945292;28;101548;-79
2023/04/22 10:45:01;;;;;;;3.88;1.60;;;;;;;;;;4942710;28;99103;-79
2023/04/22 10:47:27;;;;;;;3.63;1.70;;;;;;;;;;4944109;28;99158;-79
2023/04/22 10:50:13;;;;;;;2.63;1.45;;;;;;;;;;4943265;28;98958;-79
2023/04/22 10:52:41;;;;;;;4.47;1.75;;;;;;;;;;4942996;28;98937;-79
2023/04/22 10:55:08;;;;;;;4.60;1.95;;;;;;;;;;4943801;28;99173;-79
2023/04/22 10:57:41;;;;;;;2.75;1.55;;;;;;;;;;4944041;28;99854;-80
2023/04/22 11:00:16;;;;;;;5.65;2.58;;;;;;;;;;4943980;28;105746;-80
2023/04/22 11:02:54;;;;;;;5.47;2.53;;;;;;;;;;4943594;28;104453;-80
2023/04/22 11:05:26;;;;;;;3.83;1.60;;;;;;;;;;4951548;28;99568;-79
2023/04/22 11:07:54;;;;;;;4.05;1.85;;;;;;;;;;4945715;28;100388;-79
2023/04/22 11:10:31;;;;;;;4.35;2.03;;;;;;;;;;4941333;28;99321;-78
2023/04/22 11:12:59;;;;;;;2.72;1.50;;;;;;;;;;4939112;28;98941;-78
2023/04/22 11:15:27;;;;;;;3.95;1.70;;;;;;;;;;4942815;28;99123;-78
2023/04/22 11:17:54;;;;;;;4.40;1.70;;;;;;;;;;4939766;28;101892;-78
2023/04/22 11:20:21;;;;;;;5.65;2.40;;;;;;;;;;4942076;28;99123;-78
2023/04/22 11:22:49;;;;;;;4.55;2.10;;;;;;;;;;4941956;28;99416;-78
2023/04/22 11:25:16;;;;;;;5.32;2.60;;;;;;;;;;4943397;28;99257;-79
2023/04/22 11:27:43;;;;;;;4.18;1.90;;;;;;;;;;4948927;28;98599;-79
2023/04/22 11:30:14;;;;;;;4.72;2.20;;;;;;;;;;4944336;28;100322;-78
2023/04/22 11:32:50;;;;;;;3.67;1.83;;;;;;;;;;4944882;28;99134;-79
2023/04/22 11:35:17;;;;;;;4.05;1.83;;;;;;;;;;4926706;28;99857;-80
2023/04/22 11:37:45;;;;;;;4.60;2.25;;;;;;;;;;4944204;28;99405;-78
2023/04/22 11:40:20;;;;;;;4.05;1.92;;;;;;;;;;4944354;28;97876;-79
2023/04/22 11:42:57;;;;;;;2.78;1.50;;;;;;;;;;4944604;28;99184;-78
2023/04/22 11:45:23;;;;;;;;;;;;;;;;;;4928981;28;99112;-78
2023/04/22 11:47:50;;;;;;;4.07;1.60;;;;;;;;;;4926259;28;99834;-78
2023/04/22 11:50:19;;;;;;;3.65;1.55;;;;;;;;;;4944464;28;100209;-79
2023/04/22 11:52:53;;;;;;;3.72;1.70;;;;;;;;;;4944903;28;99131;-79
2023/04/22 11:55:20;;;;;;;5.20;1.83;;;;;;;;;;4945285;28;98901;-79
2023/04/22 11:57:51;;;;;;;4.13;2.00;;;;;;;;;;4944685;28;99126;-78
2023/04/22 12:00:18;;;;;;;5.25;2.10;;;;;;;;;;4944629;28;99103;-78
2023/04/22 12:02:55;;;;;;;3.80;1.80;;;;;;;;;;4945454;28;98973;-77
2023/04/22 12:05:35;;;;;;;4.70;2.13;;;;;;;;;;4950986;28;98725;-77
2023/04/22 12:08:11;;;;;;;4.70;1.90;;;;;;;;;;4951683;28;98727;-78
2023/04/22 12:10:38;;;;;;;5.22;2.00;;;;;;;;;;4913660;28;103863;-79
2023/04/22 12:13:05;;;;;;;5.13;2.10;;;;;;;;;;4943055;28;100062;-78
2023/04/22 12:15:40;;;;;;;4.10;2.00;;;;;;;;;;4943197;28;102196;-79
2023/04/22 12:18:07;;;;;;;3.95;1.90;;;;;;;;;;4941941;28;99236;-78
2023/04/22 12:20:34;;;;;;;5.13;2.08;;;;;;;;;;4943472;28;98958;-78
2023/04/22 12:23:02;;;;;;;4.47;2.00;;;;;;;;;;4944642;28;98865;-78
2023/04/22 12:25:29;;;;;;;3.88;2.00;;;;;;;;;;4943950;28;99250;-79
2023/04/22 12:27:56;;;;;;;4.70;2.00;;;;;;;;;;4944410;28;98610;-78
2023/04/22 12:30:23;;;;;;;5.35;2.20;;;;;;;;;;4939118;28;99326;-79
2023/04/22 12:32:50;;;;;;;;;;;;;;;;;;4945560;28;100649;-78
2023/04/22 12:35:16;;;;;;;4.20;1.98;;;;;;;;;;4944728;28;118269;-79
2023/04/22 12:37:43;;;;;;;4.25;2.10;;;;;;;;;;4942281;28;100599;-79
2023/04/22 12:40:10;;;;;;;4.82;2.20;;;;;;;;;;4943112;28;98970;-78
2023/04/22 12:42:37;;;;;;;5.32;2.30;;;;;;;;;;4925065;28;99325;-79
2023/04/22 12:45:04;;;;;;;4.85;2.20;;;;;;;;;;4942855;28;99446;-79
2023/04/22 12:47:31;;;;;;;4.55;2.13;;;;;;;;;;4925438;28;98866;-79
2023/04/22 12:50:00;;;;;;;6.05;2.38;;;;;;;;;;4940173;28;100787;-79
2023/04/22 12:52:26;;;;;;;5.72;2.22;;;;;;;;;;4939749;28;99182;-80
2023/04/22 12:54:53;;;;;;;4.72;2.10;;;;;;;;;;4947057;28;98010;-80
2023/04/22 12:57:19;;;;;;;4.72;2.10;;;;;;;;;;4944604;28;100411;-79
2023/04/22 12:59:46;;;;;;;4.20;2.13;;;;;;;;;;4944903;28;98645;-78
2023/04/22 13:02:12;;;;;;;4.68;2.10;;;;;;;;;;4943152;28;99870;-78
2023/04/22 13:04:39;;;;;;;4.40;2.08;;;;;;;;;;4941588;28;100618;-78
2023/04/22 13:07:06;;;;;;;4.20;2.17;;;;;;;;;;4943473;28;98934;-77
2023/04/22 13:09:33;;;;;;;5.25;2.10;;;;;;;;;;4943661;28;99047;-78
2023/04/22 13:11:59;;;;;;;5.65;2.38;;;;;;;;;;4943668;28;99211;-78
2023/04/22 13:14:26;;;;;;;4.60;1.90;;;;;;;;;;4943371;28;99077;-76
2023/04/22 13:16:52;;;;;;;6.25;2.33;;;;;;;;;;4947550;28;99138;-79
2023/04/22 13:19:19;;;;;;;4.95;2.20;;;;;;;;;;4946133;28;98224;-80
2023/04/22 13:21:46;;;;;;;4.82;2.17;;;;;;;;;;4943445;28;99649;-80
2023/04/22 13:24:12;;;;;;;4.70;2.05;;;;;;;;;;4943224;28;98844;-81
2023/04/22 13:26:39;;;;;;;4.22;2.17;;;;;;;;;;4943837;28;106405;-83
2023/04/22 13:29:09;;;;;;;6.97;2.38;;;;;;;;;;4943823;28;100635;-82
2023/04/22 13:31:37;;;;;;;5.30;2.15;;;;;;;;;;4944388;28;99192;-80
2023/04/22 13:34:03;;;;;;;6.05;2.03;;;;;;;;;;4944927;28;98699;-80
2023/04/22 13:36:30;;;;;;;5.32;2.10;;;;;;;;;;4937368;28;99105;-80
2023/04/22 13:38:57;;;;;;;4.88;2.20;;;;;;;;;;4946109;28;102034;-80
2023/04/22 13:41:23;;;;;;;5.05;2.28;;;;;;;;;;4948211;28;98700;-80
2023/04/22 13:43:53;;;;;;;4.97;2.03;;;;;;;;;;4948798;28;99494;-80
2023/04/22 13:46:19;;;;;;;5.63;2.05;;;;;;;;;;4948178;28;98812;-80
2023/04/22 13:48:46;;;;;;;5.30;2.33;;;;;;;;;;4960386;28;99082;-80
2023/04/22 13:51:13;;;;;;;4.50;2.00;;;;;;;;;;4963327;28;99322;-80
2023/04/22 13:53:40;;;;;;;4.60;2.10;;;;;;;;;;4965892;28;98665;-77
2023/04/22 13:56:06;;;;;;;5.22;2.17;;;;;;;;;;4964543;28;100806;-80
2023/04/22 13:58:32;;;;;;;4.80;2.40;;;;;;;;;;4952165;28;98773;-80
2023/04/22 14:00:59;;;;;;;6.80;2.33;;;;;;;;;;4955688;28;98535;-85
2023/04/22 14:03:27;;;;;;;18.77;2.20;;;;;;;;;;4950596;28;100131;-79
2023/04/22 14:05:53;;;;;;;5.32;1.90;;;;;;;;;;4948601;28;99185;-79
2023/04/22 14:08:20;;;;;;;4.40;1.70;;;;;;;;;;4941784;28;101162;-76
2023/04/22 14:10:47;;;;;;;4.25;1.67;;;;;;;;;;4940633;28;102041;-76
2023/04/22 14:13:13;;;;;;;4.97;1.60;;;;;;;;;;4942961;28;98602;-77
2023/04/22 14:15:40;;;;;;;4.72;1.63;;;;;;;;;;4942784;28;100334;-78
2023/04/22 14:18:07;;;;;;;6.80;1.73;;;;;;;;;;4943674;28;99215;-78
2023/04/22 14:20:33;;;;;;;26.83;2.78;;;;;;;;;;4946395;28;98996;-79
2023/04/22 14:23:00;;;;;;;6.22;2.17;;;;;;;;;;4930458;28;99278;-80
2023/04/22 14:25:26;;;;;;;6.60;2.10;;;;;;;;;;4941736;28;99187;-79
2023/04/22 14:27:53;;;;;;;4.28;2.08;;;;;;;;;;4941321;28;100526;-79
2023/04/22 14:30:20;;;;;;;5.57;2.38;;;;;;;;;;4924302;28;99772;-79
2023/04/22 14:32:47;;;;;;;6.63;2.35;;;;;;;;;;4926015;28;98537;-78
2023/04/22 14:35:14;;;;;;;5.88;2.20;;;;;;;;;;4943539;28;99084;-79
2023/04/22 14:37:42;;;;;;;6.07;2.28;;;;;;;;;;4943272;28;99412;-79
2023/04/22 14:40:10;;;;;;;5.88;2.35;;;;;;;;;;4942377;28;99656;-79
2023/04/22 14:42:37;;;;;;;5.47;2.22;;;;;;;;;;4943818;28;105091;-79
2023/04/22 14:45:04;;;;;;;5.63;2.40;;;;;;;;;;4941154;28;98624;-79